Time;durP1;ratioP1;P1;durP2;ratioP2;P2;SDS_P1;SDS_P2;PMS_P1;PMS_P2;Temp;Humidity;BMP_temperature;BMP_pressure;BME280_temperature;BME280_humidity;BME280_pressure;Samples;Min_cycle;Max_cycle;Signal;HPM_P1;HPM_P2
2022/05/08 00:01:56;;;;;;;1999.90;999.90;;;13.80;99.90;;;;;;4952662;29;20786;-69
2022/05/08 00:04:21;;;;;;;1999.90;999.90;;;13.80;99.90;;;;;;4953659;29;20177;-69
2022/05/08 00:06:47;;;;;;;1999.90;999.90;;;13.70;99.90;;;;;;4954374;29;20181;-69
2022/05/08 00:09:12;;;;;;;1999.90;999.90;;;13.70;99.90;;;;;;4954391;29;20226;-69
2022/05/08 00:11:38;;;;;;;1999.90;999.90;;;13.60;99.90;;;;;;4937585;29;20171;-69
2022/05/08 00:14:04;;;;;;;1999.90;999.90;;;13.60;99.90;;;;;;4954079;29;20177;-69
2022/05/08 00:16:29;;;;;;;1999.90;999.90;;;13.50;99.90;;;;;;4954285;29;20353;-69
2022/05/08 00:18:55;;;;;;;1999.90;999.90;;;13.50;99.90;;;;;;4954146;29;20421;-69
2022/05/08 00:21:21;;;;;;;1999.90;999.90;;;13.50;99.90;;;;;;4953974;29;20628;-69
2022/05/08 00:23:46;;;;;;;1999.90;999.90;;;13.40;99.90;;;;;;4954214;29;20632;-69
2022/05/08 00:26:13;;;;;;;1999.90;999.90;;;13.40;99.90;;;;;;4953100;29;20173;-70
2022/05/08 00:28:39;;;;;;;1999.90;999.90;;;13.50;99.90;;;;;;4951800;29;20187;-70
2022/05/08 00:31:08;;;;;;;1999.90;999.90;;;13.50;99.90;;;;;;4951806;29;20500;-70
2022/05/08 00:33:34;;;;;;;1999.90;999.90;;;13.60;99.90;;;;;;4952158;29;20519;-70
2022/05/08 00:35:59;;;;;;;1999.90;999.90;;;13.70;99.90;;;;;;4951318;29;20502;-70
2022/05/08 00:38:25;;;;;;;1999.90;999.90;;;13.60;99.90;;;;;;4951398;29;20185;-69
2022/05/08 00:40:51;;;;;;;1999.90;999.90;;;13.50;99.90;;;;;;4951221;29;20192;-69
2022/05/08 00:43:38;;;;;;;1999.90;999.90;;;13.50;99.90;;;;;;4951582;29;20173;-70
2022/05/08 00:46:21;;;;;;;1999.90;999.90;;;13.50;99.90;;;;;;4951406;29;20167;-70
2022/05/08 00:48:47;;;;;;;1999.90;999.90;;;13.50;99.90;;;;;;4951934;29;20452;-70
2022/05/08 00:51:16;;;;;;;1999.90;999.90;;;13.40;99.90;;;;;;4951907;29;20433;-70
2022/05/08 00:53:48;;;;;;;1999.90;999.90;;;13.50;99.90;;;;;;4952101;29;20181;-70
2022/05/08 00:56:15;;;;;;;1999.90;999.90;;;13.50;99.90;;;;;;4952093;29;20403;-70
2022/05/08 00:58:43;;;;;;;1999.90;999.90;;;13.50;99.90;;;;;;4952965;29;20499;-70
2022/05/08 01:01:09;;;;;;;1999.90;999.90;;;13.50;99.90;;;;;;4955305;29;20442;-70
2022/05/08 01:03:36;;;;;;;1999.90;999.90;;;13.60;99.90;;;;;;4956638;29;20407;-70
2022/05/08 01:06:13;;;;;;;1999.90;999.90;;;13.60;99.90;;;;;;4956616;29;20406;-70
2022/05/08 01:08:47;;;;;;;1999.90;999.90;;;13.70;99.90;;;;;;4956267;29;20489;-70
2022/05/08 01:11:13;;;;;;;1999.90;999.90;;;13.70;99.90;;;;;;4955735;29;20459;-70
2022/05/08 01:13:41;;;;;;;1999.90;999.90;;;13.70;99.90;;;;;;4955812;29;20399;-70
2022/05/08 01:16:12;;;;;;;1999.90;999.90;;;13.70;99.90;;;;;;4955918;29;20422;-70
2022/05/08 01:18:38;;;;;;;1999.90;999.90;;;13.70;99.90;;;;;;4956560;29;20403;-70
2022/05/08 01:21:07;;;;;;;1999.90;999.90;;;13.80;99.90;;;;;;4956726;29;20472;-70
2022/05/08 01:23:33;;;;;;;1999.90;999.90;;;13.80;99.90;;;;;;4956680;29;20413;-70
2022/05/08 01:25:58;;;;;;;1999.90;999.90;;;13.80;99.90;;;;;;4956179;29;20426;-70
2022/05/08 01:28:25;;;;;;;1999.90;999.90;;;13.90;99.90;;;;;;4956601;29;20236;-70
2022/05/08 01:30:53;;;;;;;1999.90;999.90;;;13.90;99.90;;;;;;4939343;29;20210;-70
2022/05/08 01:33:19;;;;;;;1999.90;999.90;;;13.90;99.90;;;;;;4956606;29;20415;-70
2022/05/08 01:35:45;;;;;;;1999.90;999.90;;;13.90;99.90;;;;;;4957195;29;20465;-70
2022/05/08 01:38:13;;;;;;;1999.90;999.90;;;13.90;99.90;;;;;;4957293;29;20402;-70
2022/05/08 01:40:40;;;;;;;1999.90;999.90;;;13.90;99.90;;;;;;4957769;29;20433;-70
2022/05/08 01:43:06;;;;;;;1999.90;999.90;;;13.90;99.90;;;;;;4957483;29;20460;-70
2022/05/08 01:45:34;;;;;;;1999.90;999.90;;;14.00;99.90;;;;;;4957184;29;20495;-70
2022/05/08 01:50:44;;;;;;;1999.90;999.90;;;14.10;99.90;;;;;;4957722;29;20954;-70
2022/05/08 01:53:10;;;;;;;1999.90;999.90;;;14.20;99.90;;;;;;4957498;29;20521;-70
2022/05/08 01:55:37;;;;;;;1999.90;999.90;;;14.30;99.90;;;;;;4957427;29;20472;-70
2022/05/08 01:58:03;;;;;;;1999.90;999.90;;;14.30;99.90;;;;;;4957607;29;20407;-70
2022/05/08 02:00:29;;;;;;;1999.90;999.90;;;14.30;99.90;;;;;;4957404;29;20968;-70
2022/05/08 02:02:58;;;;;;;1999.90;999.90;;;14.40;99.90;;;;;;4957594;29;20949;-70
2022/05/08 02:05:24;;;;;;;1999.90;999.90;;;14.40;99.90;;;;;;4957155;29;20415;-70
2022/05/08 02:07:50;;;;;;;1999.90;999.90;;;14.50;99.90;;;;;;4957365;29;20415;-70
2022/05/08 02:10:17;;;;;;;1999.90;999.90;;;14.50;99.90;;;;;;4956570;28;20481;-70
2022/05/08 02:12:44;;;;;;;1999.90;999.90;;;14.50;99.90;;;;;;4957157;29;20171;-70
2022/05/08 02:15:11;;;;;;;1999.90;999.90;;;14.60;99.90;;;;;;4957049;29;20903;-70
2022/05/08 02:17:37;;;;;;;1999.90;999.90;;;14.60;99.90;;;;;;4957430;29;20409;-70
2022/05/08 02:20:05;;;;;;;1999.90;999.90;;;14.60;99.90;;;;;;4957098;29;20959;-70
2022/05/08 02:22:30;;;;;;;1999.90;999.90;;;14.70;99.90;;;;;;4956897;29;20417;-70
2022/05/08 02:24:56;;;;;;;1999.90;999.90;;;14.70;99.90;;;;;;4956911;29;20903;-70
2022/05/08 02:27:21;;;;;;;1999.90;999.90;;;14.70;99.90;;;;;;4957157;29;20171;-70
2022/05/08 02:29:48;;;;;;;1999.90;999.90;;;14.70;99.90;;;;;;4956947;29;20212;-70
2022/05/08 02:32:14;;;;;;;1999.90;999.90;;;14.70;99.90;;;;;;4957200;29;20631;-70
2022/05/08 02:34:40;;;;;;;1999.90;999.90;;;14.70;99.90;;;;;;4939876;29;20480;-70
2022/05/08 02:37:06;;;;;;;1999.90;999.90;;;14.70;99.90;;;;;;4956924;29;20497;-70
2022/05/08 02:39:31;;;;;;;1999.90;999.90;;;14.70;99.90;;;;;;4956815;29;20193;-70
2022/05/08 02:41:57;;;;;;;1999.90;999.90;;;14.70;99.90;;;;;;4939536;29;20178;-70
2022/05/08 02:44:23;;;;;;;1999.90;999.90;;;14.70;99.90;;;;;;4956481;29;20174;-70
2022/05/08 02:46:48;;;;;;;1999.90;999.90;;;14.70;99.90;;;;;;4956515;29;20541;-70
2022/05/08 02:49:15;;;;;;;1999.90;999.90;;;14.70;99.90;;;;;;4956502;29;20617;-70
2022/05/08 02:51:41;;;;;;;1999.90;999.90;;;14.60;99.90;;;;;;4956714;29;20174;-70
2022/05/08 02:54:06;;;;;;;1999.90;999.90;;;14.60;99.90;;;;;;4956367;29;20888;-70
2022/05/08 02:59:16;;;;;;;1999.90;999.90;;;14.50;99.90;;;;;;4956725;29;20213;-70
2022/05/08 03:01:41;;;;;;;1999.90;999.90;;;14.50;99.90;;;;;;4956216;29;20421;-70
2022/05/08 03:04:07;;;;;;;1999.90;999.90;;;14.50;99.90;;;;;;4955833;29;20832;-70
2022/05/08 03:06:33;;;;;;;1999.90;999.90;;;14.40;99.90;;;;;;4955349;29;20180;-70
2022/05/08 03:08:59;;;;;;;1999.90;999.90;;;14.40;99.90;;;;;;4954214;29;20282;-70
2022/05/08 03:11:29;;;;;;;1999.90;999.90;;;14.30;99.90;;;;;;4951964;29;20224;-70
2022/05/08 03:13:57;;;;;;;1999.90;999.90;;;14.20;99.90;;;;;;4951833;29;20406;-69
2022/05/08 03:16:23;;;;;;;1999.90;999.90;;;14.10;99.90;;;;;;4951805;29;20475;-69
2022/05/08 03:18:49;;;;;;;1999.90;999.90;;;14.00;99.90;;;;;;4951871;29;20784;-69
2022/05/08 03:21:16;;;;;;;1999.90;999.90;;;14.00;99.90;;;;;;4952232;29;20453;-70
2022/05/08 03:23:43;;;;;;;1999.90;999.90;;;13.90;99.90;;;;;;4954606;28;20494;-70
2022/05/08 03:26:09;;;;;;;1999.90;999.90;;;13.90;99.90;;;;;;4954362;29;20411;-70
2022/05/08 03:28:36;;;;;;;1999.90;999.90;;;13.90;99.90;;;;;;4955271;29;20463;-70
2022/05/08 03:31:02;;;;;;;1999.90;999.90;;;13.80;99.90;;;;;;4955386;29;20633;-70
2022/05/08 03:33:29;;;;;;;1999.90;999.90;;;13.80;99.90;;;;;;4955616;29;20411;-70
2022/05/08 03:35:55;;;;;;;1999.90;999.90;;;13.90;99.90;;;;;;4954132;29;20457;-70
2022/05/08 03:38:21;;;;;;;1999.90;999.90;;;13.90;99.90;;;;;;4936433;28;20510;-69
2022/05/08 03:40:47;;;;;;;1999.90;999.90;;;13.80;99.90;;;;;;4953407;29;20431;-69
2022/05/08 03:43:13;;;;;;;1999.90;999.90;;;13.90;99.90;;;;;;4953742;29;20418;-69
2022/05/08 03:45:39;;;;;;;1999.90;999.90;;;13.90;99.90;;;;;;4953253;29;20415;-69
2022/05/08 03:48:05;;;;;;;1999.90;999.90;;;13.90;99.90;;;;;;4953650;29;20173;-69
2022/05/08 03:50:30;;;;;;;1999.90;999.90;;;13.90;99.90;;;;;;4951290;29;20725;-69
2022/05/08 03:52:57;;;;;;;1999.90;999.90;;;13.90;99.90;;;;;;4951390;29;20439;-69
2022/05/08 03:55:23;;;;;;;1999.90;999.90;;;13.90;99.90;;;;;;4951076;29;20175;-69
2022/05/08 03:57:49;;;;;;;1999.90;999.90;;;13.80;99.90;;;;;;4934130;29;20485;-70
2022/05/08 04:00:16;;;;;;;1999.90;999.90;;;13.70;99.90;;;;;;4951370;29;20270;-69
2022/05/08 04:02:42;;;;;;;1999.90;999.90;;;13.70;99.90;;;;;;4951165;29;20414;-70
2022/05/08 04:05:09;;;;;;;1999.90;999.90;;;13.70;99.90;;;;;;4950947;29;20486;-70
2022/05/08 04:07:35;;;;;;;1999.90;999.90;;;13.70;99.90;;;;;;4951197;29;20416;-69
2022/05/08 04:10:01;;;;;;;1999.90;999.90;;;13.70;99.90;;;;;;4950994;29;20576;-70
2022/05/08 04:12:27;;;;;;;1999.90;999.90;;;13.70;99.90;;;;;;4951172;29;20435;-69
2022/05/08 04:14:53;;;;;;;1999.90;999.90;;;13.70;99.90;;;;;;4950813;29;20608;-69
2022/05/08 04:17:19;;;;;;;1999.90;999.90;;;13.70;99.90;;;;;;4951076;29;20557;-69
2022/05/08 04:19:46;;;;;;;1999.90;999.90;;;13.70;99.90;;;;;;4951025;29;20439;-69
2022/05/08 04:24:57;;;;;;;1999.90;999.90;;;13.70;99.90;;;;;;4951048;29;20456;-69
2022/05/08 04:27:23;;;;;;;1999.90;999.90;;;13.70;99.90;;;;;;4950952;28;20499;-69
2022/05/08 04:29:48;;;;;;;1999.90;999.90;;;13.60;99.90;;;;;;4950751;29;20474;-70
2022/05/08 04:32:14;;;;;;;1999.90;999.90;;;13.60;99.90;;;;;;4933735;29;20726;-69
2022/05/08 04:34:40;;;;;;;1999.90;999.90;;;13.50;99.90;;;;;;4952375;28;20250;-70
2022/05/08 04:37:05;;;;;;;1999.90;999.90;;;13.50;99.90;;;;;;4954255;29;20250;-69
2022/05/08 04:39:31;;;;;;;1999.90;999.90;;;13.60;99.90;;;;;;4954449;29;20553;-70
2022/05/08 04:41:56;;;;;;;1999.90;999.90;;;13.60;99.90;;;;;;4954178;29;20177;-69
2022/05/08 04:44:22;;;;;;;1999.90;999.90;;;13.60;99.90;;;;;;4953885;29;20182;-69
2022/05/08 04:46:48;;;;;;;1999.90;999.90;;;13.60;99.90;;;;;;4954122;29;20181;-69
2022/05/08 04:49:14;;;;;;;1999.90;999.90;;;13.60;99.90;;;;;;4954134;28;20245;-70
2022/05/08 04:51:39;;;;;;;1999.90;999.90;;;13.60;99.90;;;;;;4953988;29;20205;-69
2022/05/08 04:54:05;;;;;;;1999.90;999.90;;;13.50;99.90;;;;;;4953731;29;20410;-69
2022/05/08 04:56:31;;;;;;;1999.90;999.90;;;13.50;99.90;;;;;;4953995;29;20206;-69
2022/05/08 04:58:57;;;;;;;1999.90;999.90;;;13.50;99.90;;;;;;4953861;29;20173;-69
2022/05/08 05:01:23;;;;;;;1999.90;999.90;;;13.50;99.90;;;;;;4953999;29;20488;-69
2022/05/08 05:03:50;;;;;;;1999.90;999.90;;;13.50;99.90;;;;;;4957092;29;20407;-70
2022/05/08 05:06:15;;;;;;;1999.90;999.90;;;13.40;99.90;;;;;;4955121;29;20469;-69
2022/05/08 05:08:41;;;;;;;1999.90;999.90;;;13.40;99.90;;;;;;4956023;29;20455;-70
2022/05/08 05:11:08;;;;;;;1999.90;999.90;;;13.40;99.90;;;;;;4939221;29;20205;-70
2022/05/08 05:13:35;;;;;;;1999.90;999.90;;;13.40;99.90;;;;;;4956248;29;20160;-69
2022/05/08 05:16:00;;;;;;;1999.90;999.90;;;13.40;99.90;;;;;;4956700;29;20413;-69
2022/05/08 05:18:26;;;;;;;1999.90;999.90;;;13.40;99.90;;;;;;4938714;29;20421;-69
2022/05/08 05:20:52;;;;;;;1999.90;999.90;;;13.30;99.90;;;;;;4956166;29;20193;-69
2022/05/08 05:23:17;;;;;;;1999.90;999.90;;;13.40;99.90;;;;;;4956745;29;20194;-69
2022/05/08 05:25:43;;;;;;;1999.90;999.90;;;13.30;99.90;;;;;;4956742;29;20261;-69
2022/05/08 05:28:09;;;;;;;1999.90;999.90;;;13.40;99.90;;;;;;4939310;29;20178;-69
2022/05/08 05:30:34;;;;;;;1999.90;999.90;;;13.40;99.90;;;;;;4954660;29;20660;-70
2022/05/08 05:33:00;;;;;;;1999.90;999.90;;;13.40;99.90;;;;;;4953444;29;20170;-70
2022/05/08 05:35:26;;;;;;;1999.90;999.90;;;13.50;99.90;;;;;;4935991;29;20934;-69
2022/05/08 05:37:51;;;;;;;1999.90;999.90;;;13.40;99.90;;;;;;4953592;29;20174;-69
2022/05/08 05:40:17;;;;;;;1999.90;999.90;;;13.50;99.90;;;;;;4936129;29;20901;-69
2022/05/08 05:42:42;;;;;;;1999.90;999.90;;;13.50;99.90;;;;;;4953243;29;20174;-69
2022/05/08 05:45:08;;;;;;;1999.90;999.90;;;13.60;99.90;;;;;;4952731;29;20188;-69
2022/05/08 05:47:49;;;;;;;1999.90;999.90;;;13.60;99.90;;;;;;4954539;29;20656;-69
2022/05/08 05:50:19;;;;;;;1999.90;999.90;;;13.50;99.90;;;;;;4956246;29;20243;-69
2022/05/08 05:52:45;;;;;;;1999.90;999.90;;;13.50;99.90;;;;;;4956054;29;20447;-69
2022/05/08 05:55:11;;;;;;;1999.90;999.90;;;13.50;99.90;;;;;;4956125;29;20898;-69
2022/05/08 05:57:37;;;;;;;1999.90;999.90;;;13.50;99.90;;;;;;4955129;29;20633;-69
2022/05/08 06:00:09;;;;;;;1999.90;999.90;;;13.60;99.90;;;;;;4938334;29;20443;-69
2022/05/08 06:02:36;;;;;;;1999.90;999.90;;;13.60;99.90;;;;;;4955251;29;20173;-69
2022/05/08 06:05:01;;;;;;;1999.90;999.90;;;13.70;99.90;;;;;;4936449;29;20430;-69
2022/05/08 06:07:27;;;;;;;1999.90;999.90;;;13.60;99.90;;;;;;4952924;29;20416;-69
2022/05/08 06:09:53;;;;;;;1999.90;999.90;;;13.60;99.90;;;;;;4952666;29;20261;-70
2022/05/08 06:12:18;;;;;;;1999.90;999.90;;;13.70;99.90;;;;;;4955717;29;20168;-70
2022/05/08 06:14:46;;;;;;;1999.90;999.90;;;13.80;99.90;;;;;;4953701;29;20348;-69
2022/05/08 06:17:12;;;;;;;1999.90;999.90;;;13.80;99.90;;;;;;4952796;29;20168;-69
2022/05/08 06:19:38;;;;;;;1999.90;999.90;;;13.90;99.90;;;;;;4952628;29;21010;-69
2022/05/08 06:22:03;;;;;;;1999.90;999.90;;;13.90;99.90;;;;;;4952733;29;20410;-69
2022/05/08 06:24:29;;;;;;;1999.90;999.90;;;14.10;99.90;;;;;;4952367;29;20182;-69
2022/05/08 06:26:55;;;;;;;1999.90;999.90;;;14.20;99.90;;;;;;4952656;29;20191;-69
2022/05/08 06:29:20;;;;;;;1999.90;999.90;;;14.30;99.90;;;;;;4954041;29;20212;-70
2022/05/08 06:31:48;;;;;;;1999.90;999.90;;;14.30;99.90;;;;;;4955458;29;20194;-70
2022/05/08 06:34:13;;;;;;;1999.90;999.90;;;14.40;99.90;;;;;;4955827;29;20166;-70
2022/05/08 06:36:39;;;;;;;1999.90;999.90;;;14.50;99.90;;;;;;4956524;29;20903;-70
2022/05/08 06:39:04;;;;;;;1999.90;999.90;;;14.50;99.90;;;;;;4955447;29;20185;-70
2022/05/08 06:41:30;;;;;;;1999.90;999.90;;;14.60;99.90;;;;;;4955317;29;20175;-70
2022/05/08 06:43:56;;;;;;;1999.90;999.90;;;14.60;99.90;;;;;;4955911;29;20198;-70
2022/05/08 06:46:21;;;;;;;1999.90;999.90;;;14.60;99.90;;;;;;4954089;29;20179;-69
2022/05/08 06:48:47;;;;;;;1999.90;999.90;;;14.60;99.90;;;;;;4953600;29;20231;-69
2022/05/08 06:51:13;;;;;;;1999.90;999.90;;;14.50;99.90;;;;;;4954447;29;20186;-69
2022/05/08 06:53:39;;;;;;;1999.90;999.90;;;14.40;99.90;;;;;;4954311;29;20653;-69
2022/05/08 06:56:05;;;;;;;1999.90;999.90;;;14.40;99.90;;;;;;4954200;29;20414;-69
2022/05/08 07:01:34;;;;;;;1999.90;999.90;;;14.40;99.90;;;;;;4953255;28;20415;-69
2022/05/08 07:04:03;;;;;;;1999.90;999.90;;;14.50;99.90;;;;;;4953355;29;20848;-70
2022/05/08 07:06:29;;;;;;;1999.90;999.90;;;14.60;99.90;;;;;;4953631;29;20843;-69
2022/05/08 07:08:55;;;;;;;1999.90;999.90;;;14.70;99.90;;;;;;4953229;29;20507;-70
2022/05/08 07:11:21;;;;;;;1999.90;999.90;;;14.90;99.90;;;;;;4936346;28;20417;-69
2022/05/08 07:13:47;;;;;;;1999.90;999.90;;;15.00;99.90;;;;;;4953455;29;20412;-69
2022/05/08 07:16:13;;;;;;;1999.90;999.90;;;14.90;99.90;;;;;;4952944;29;20261;-69
2022/05/08 07:18:39;;;;;;;1999.90;999.90;;;15.00;99.90;;;;;;4936227;29;20487;-69
2022/05/08 07:21:05;;;;;;;1999.90;999.90;;;15.10;99.90;;;;;;4935946;29;20204;-69
2022/05/08 07:23:32;;;;;;;1999.90;999.90;;;15.30;99.90;;;;;;4935814;28;20202;-69
2022/05/08 07:25:58;;;;;;;1999.90;999.90;;;15.40;99.90;;;;;;4952269;29;20422;-69
2022/05/08 07:28:24;;;;;;;1999.90;999.90;;;15.40;99.90;;;;;;4951984;29;20424;-70
2022/05/08 07:30:50;;;;;;;1999.90;999.90;;;15.40;99.90;;;;;;4951546;29;20451;-69
2022/05/08 07:33:16;;;;;;;1999.90;999.90;;;15.30;99.90;;;;;;4951763;29;20832;-69
2022/05/08 07:38:30;;;;;;;1999.90;999.90;;;15.60;99.90;;;;;;4951555;29;20470;-69
2022/05/08 07:40:58;;;;;;;1999.90;999.90;;;15.80;99.90;;;;;;4952017;29;20461;-70
2022/05/08 07:43:24;;;;;;;1999.90;999.90;;;16.00;99.90;;;;;;4952588;29;20411;-69
2022/05/08 07:45:50;;;;;;;1999.90;999.90;;;16.00;99.90;;;;;;4952161;29;20843;-69
2022/05/08 07:48:19;;;;;;;1999.90;999.90;;;15.90;99.90;;;;;;4934826;29;20425;-69
2022/05/08 07:50:45;;;;;;;1999.90;999.90;;;15.70;99.90;;;;;;4934180;29;20533;-69
2022/05/08 07:53:12;;;;;;;1999.90;999.90;;;15.60;99.90;;;;;;4951308;29;20406;-69
2022/05/08 07:55:38;;;;;;;1999.90;999.90;;;15.70;99.90;;;;;;4952476;28;20786;-70
2022/05/08 07:58:04;;;;;;;1999.90;999.90;;;15.90;99.90;;;;;;4952502;29;20785;-70
2022/05/08 08:00:30;;;;;;;1999.90;999.90;;;16.00;99.90;;;;;;4951870;29;20419;-69
2022/05/08 08:02:55;;;;;;;1999.90;999.90;;;15.90;99.90;;;;;;4952417;29;20189;-69
2022/05/08 08:05:21;;;;;;;1999.90;999.90;;;16.00;99.90;;;;;;4931562;29;20207;-69
2022/05/08 08:07:47;;;;;;;1999.90;999.90;;;16.10;99.90;;;;;;4951217;29;20219;-69
2022/05/08 08:10:13;;;;;;;1999.90;999.90;;;16.20;99.90;;;;;;4952337;29;20492;-69
2022/05/08 08:12:39;;;;;;;1999.90;999.90;;;16.40;99.90;;;;;;4952000;29;20173;-69
2022/05/08 08:15:05;;;;;;;1999.90;999.90;;;16.50;99.90;;;;;;4948545;29;20182;-68
2022/05/08 08:17:31;;;;;;;1999.90;999.90;;;16.50;99.90;;;;;;4950619;29;20969;-66
2022/05/08 08:19:57;;;;;;;1999.90;999.90;;;16.50;99.90;;;;;;4950341;28;20433;-66
2022/05/08 08:22:23;;;;;;;1999.90;999.90;;;16.50;99.90;;;;;;4950689;29;20179;-65
2022/05/08 08:24:49;;;;;;;1999.90;999.90;;;16.40;99.90;;;;;;4950448;28;20423;-66
2022/05/08 08:27:16;;;;;;;1999.90;999.90;;;16.30;99.90;;;;;;4951157;28;20427;-68
2022/05/08 08:29:42;;;;;;;1999.90;999.90;;;16.30;99.90;;;;;;4953532;28;20594;-69
2022/05/08 08:32:08;;;;;;;1999.90;999.90;;;16.30;99.90;;;;;;4954658;28;20444;-69
2022/05/08 08:34:33;;;;;;;1999.90;999.90;;;16.00;99.90;;;;;;4952292;29;20186;-69
2022/05/08 08:36:59;;;;;;;1999.90;999.90;;;15.80;99.90;;;;;;4954150;28;20441;-69
2022/05/08 08:39:25;;;;;;;1999.90;999.90;;;16.10;99.90;;;;;;4954392;28;20707;-69
2022/05/08 08:42:30;;;;;;;1999.90;999.90;;;16.30;99.90;;;;;;4951372;29;20646;-69
2022/05/08 08:48:05;;;;;;;1999.90;999.90;;;16.60;99.90;;;;;;4953508;29;20468;-69
2022/05/08 08:50:32;;;;;;;1999.90;999.90;;;16.70;99.90;;;;;;4953707;29;20472;-69
2022/05/08 08:53:00;;;;;;;1999.90;999.90;;;16.50;99.90;;;;;;4953599;29;20417;-69
2022/05/08 08:55:26;;;;;;;1999.90;999.90;;;16.50;99.90;;;;;;4936492;28;20771;-69
2022/05/08 08:57:52;;;;;;;1999.90;999.90;;;16.70;99.90;;;;;;4953746;29;20478;-69
2022/05/08 09:00:18;;;;;;;1999.90;999.90;;;16.80;99.90;;;;;;4953212;28;20475;-69
2022/05/08 09:02:44;;;;;;;1999.90;999.90;;;16.80;99.90;;;;;;4950512;29;20183;-68
2022/05/08 09:05:10;;;;;;;1999.90;999.90;;;16.90;99.90;;;;;;4950143;28;20790;-69
2022/05/08 09:07:53;;;;;;;1999.90;999.90;;;17.20;99.90;;;;;;4950514;28;20426;-70
2022/05/08 09:10:22;;;;;;;1999.90;999.90;;;17.30;99.90;;;;;;4949652;29;20494;-66
2022/05/08 09:12:56;;;;;;;1999.90;999.90;;;17.40;99.90;;;;;;4949872;28;20412;-67
2022/05/08 09:15:27;;;;;;;1999.90;999.90;;;17.60;99.90;;;;;;4950004;28;20412;-67
2022/05/08 09:18:00;;;;;;;1999.90;999.90;;;17.70;99.90;;;;;;4950088;28;20421;-67
2022/05/08 09:20:33;;;;;;;1999.90;999.90;;;17.70;99.90;;;;;;4950176;28;20525;-68
2022/05/08 09:23:21;;;;;;;1999.90;999.90;;;17.60;99.90;;;;;;4953404;28;20414;-68
2022/05/08 09:26:00;;;;;;;1999.90;999.90;;;17.70;99.90;;;;;;4953046;29;20415;-69
2022/05/08 09:28:37;;;;;;;1999.90;999.90;;;18.00;99.90;;;;;;4953119;29;20784;-68
2022/05/08 09:31:09;;;;;;;1999.90;999.90;;;18.20;99.90;;;;;;4952924;29;20451;-68
2022/05/08 09:33:41;;;;;;;1999.90;999.90;;;18.20;99.90;;;;;;4953196;29;20423;-68
2022/05/08 09:36:09;;;;;;;1999.90;999.90;;;18.20;99.90;;;;;;4952211;29;20816;-68
2022/05/08 09:38:45;;;;;;;1999.90;999.90;;;18.40;99.90;;;;;;4953064;29;20450;-66
2022/05/08 09:41:11;;;;;;;1999.90;999.90;;;18.40;99.90;;;;;;4952868;28;20427;-67
2022/05/08 09:43:40;;;;;;;1999.90;999.90;;;18.40;99.90;;;;;;4953057;29;20917;-66
2022/05/08 09:46:06;;;;;;;1999.90;999.90;;;18.70;99.90;;;;;;4952831;28;20418;-67
2022/05/08 09:48:33;;;;;;;1999.90;999.90;;;19.00;99.90;;;;;;4952872;29;20415;-67
2022/05/08 09:51:01;;;;;;;1999.90;999.90;;;19.40;99.90;;;;;;4952799;29;20959;-67
2022/05/08 09:53:28;;;;;;;1999.90;999.90;;;19.70;99.90;;;;;;4952946;28;20402;-66
2022/05/08 09:55:55;;;;;;;1999.90;999.90;;;20.00;99.90;;;;;;4952593;29;20385;-67
2022/05/08 09:58:22;;;;;;;1999.90;999.90;;;19.80;99.90;;;;;;4952776;29;20413;-67
2022/05/08 10:00:48;;;;;;;1999.90;999.90;;;19.70;99.90;;;;;;4952788;29;20959;-68
2022/05/08 10:03:15;;;;;;;1999.90;999.90;;;19.70;99.90;;;;;;4952653;29;20500;-68
2022/05/08 10:05:42;;;;;;;1999.90;999.90;;;19.80;99.90;;;;;;4952237;28;20416;-67
2022/05/08 10:08:08;;;;;;;1999.90;999.90;;;19.60;99.90;;;;;;4952700;28;20403;-67
2022/05/08 10:16:47;;;;;;;1999.90;999.90;;;19.40;99.90;;;;;;4952462;28;20400;-68
2022/05/08 10:19:32;;;;;;;1999.90;999.90;;;19.60;99.90;;;;;;4952487;28;20464;-67
2022/05/08 10:22:09;;;;;;;1999.90;999.90;;;19.50;99.90;;;;;;4952243;28;20423;-68
2022/05/08 10:24:57;;;;;;;1999.90;999.90;;;19.40;99.90;;;;;;4952029;29;20416;-68
2022/05/08 10:27:31;;;;;;;1999.90;999.90;;;19.60;99.90;;;;;;4951764;29;20431;-67
2022/05/08 10:29:56;;;;;;;1999.90;999.90;;;19.50;99.90;;;;;;4952028;29;20987;-68
2022/05/08 10:32:31;;;;;;;1999.90;999.90;;;19.50;99.90;;;;;;4952094;28;20414;-68
2022/05/08 10:35:16;;;;;;;1999.90;999.90;;;19.70;99.90;;;;;;4951917;28;20705;-68
2022/05/08 10:38:12;;;;;;;1999.90;999.90;;;19.80;99.90;;;;;;4952417;28;20418;-68
2022/05/08 10:40:39;;;;;;;1999.90;999.90;;;20.00;99.90;;;;;;4951928;29;20434;-68
2022/05/08 10:43:10;;;;;;;1999.90;999.90;;;20.10;99.90;;;;;;4952032;28;20894;-68
2022/05/08 10:45:40;;;;;;;1999.90;999.90;;;20.10;99.90;;;;;;4951704;28;20462;-67
2022/05/08 10:48:19;;;;;;;1999.90;999.90;;;20.00;99.90;;;;;;4952055;28;20415;-67
2022/05/08 10:50:47;;;;;;;1999.90;999.90;;;20.40;99.90;;;;;;4951819;29;20881;-68
2022/05/08 10:53:24;;;;;;;1999.90;999.90;;;20.70;99.90;;;;;;4951895;28;20407;-67
2022/05/08 10:55:51;;;;;;;1999.90;999.90;;;20.80;99.70;;;;;;4951553;28;20407;-68
2022/05/08 10:58:17;;;;;;;1999.90;999.90;;;20.80;99.90;;;;;;4951699;29;20404;-68
2022/05/08 11:00:43;;;;;;;1999.90;999.90;;;20.70;98.30;;;;;;4951734;29;20394;-68
2022/05/08 11:03:09;;;;;;;1999.90;999.90;;;20.20;99.90;;;;;;4951725;28;20425;-67
2022/05/08 11:05:39;;;;;;;1999.90;999.90;;;20.10;99.90;;;;;;4951381;29;20636;-68
2022/05/08 11:08:10;;;;;;;1999.90;999.90;;;20.40;99.90;;;;;;4951770;29;20826;-68
2022/05/08 11:10:41;;;;;;;1999.90;999.90;;;20.70;99.90;;;;;;4951941;29;20473;-67
2022/05/08 11:13:12;;;;;;;1999.90;999.90;;;21.10;99.90;;;;;;4951510;29;20428;-68
2022/05/08 11:15:43;;;;;;;1999.90;999.90;;;21.40;97.80;;;;;;4951270;29;20412;-68
2022/05/08 11:18:23;;;;;;;1999.90;999.90;;;21.30;95.80;;;;;;4951489;28;20991;-68
2022/05/08 11:21:09;;;;;;;1999.90;999.90;;;21.20;93.00;;;;;;4951465;28;20439;-68
2022/05/08 11:23:45;;;;;;;1999.90;999.90;;;20.90;93.20;;;;;;4951872;28;20419;-67
2022/05/08 11:26:12;;;;;;;1999.90;999.90;;;21.10;90.80;;;;;;4951099;29;20836;-68
2022/05/08 11:28:51;;;;;;;1999.90;999.90;;;21.30;84.20;;;;;;4951212;29;20433;-68
2022/05/08 11:31:18;;;;;;;1999.90;999.90;;;21.40;78.00;;;;;;4951756;28;20482;-68
2022/05/08 11:36:34;;;;;;;1999.90;999.90;;;21.60;78.60;;;;;;4951618;29;20432;-69
2022/05/08 11:39:04;;;;;;;1999.90;999.90;;;21.70;72.90;;;;;;4951173;28;20948;-68
2022/05/08 11:41:32;;;;;;;1999.90;999.90;;;22.00;65.70;;;;;;4951332;28;20390;-68
2022/05/08 11:44:25;;;;;;;1999.90;999.90;;;22.10;69.50;;;;;;4950342;28;20384;-67
2022/05/08 11:46:55;;;;;;;1999.90;999.90;;;22.10;59.40;;;;;;4951297;28;20427;-68
2022/05/08 11:49:27;;;;;;;1999.90;999.90;;;22.00;57.60;;;;;;4950832;28;20501;-68
2022/05/08 11:51:56;;;;;;;1999.90;999.90;;;22.20;56.10;;;;;;4951082;28;20847;-69
2022/05/08 11:54:29;;;;;;;1999.90;999.90;;;22.20;49.20;;;;;;4950646;29;20417;-68
2022/05/08 11:57:11;;;;;;;1999.90;999.90;;;22.40;52.00;;;;;;4950996;28;20409;-68
2022/05/08 11:59:37;;;;;;;1999.90;999.90;;;23.00;49.90;;;;;;4950343;28;20439;-68
2022/05/08 12:02:03;;;;;;;1999.90;999.90;;;23.80;43.70;;;;;;4951173;28;20417;-68
2022/05/08 12:04:32;;;;;;;1999.90;999.90;;;24.60;40.50;;;;;;4951018;29;20175;-67
2022/05/08 12:07:20;;;;;;;1999.90;999.90;;;25.40;36.50;;;;;;4951015;28;20503;-68
2022/05/08 12:09:53;;;;;;;1999.90;999.90;;;26.00;36.20;;;;;;4950725;29;20553;-68
2022/05/08 12:12:26;;;;;;;1999.90;999.90;;;26.90;33.50;;;;;;4951324;29;20835;-68
2022/05/08 12:15:06;;;;;;;1999.90;999.90;;;27.40;30.00;;;;;;4950904;29;20411;-68
2022/05/08 12:17:53;;;;;;;1999.90;999.90;;;27.50;23.40;;;;;;4950972;28;20438;-69
2022/05/08 12:20:34;;;;;;;1999.90;999.90;;;27.40;21.50;;;;;;4951161;28;20431;-67
2022/05/08 12:23:07;;;;;;;1999.90;999.90;;;27.40;20.40;;;;;;4951082;28;20411;-68
2022/05/08 12:25:35;;;;;;;1999.90;999.90;;;27.50;20.70;;;;;;4950823;28;20411;-68
2022/05/08 12:28:01;;;;;;;1999.90;999.90;;;27.20;20.10;;;;;;4950932;28;20414;-67
2022/05/08 12:30:26;;;;;;;1999.90;999.90;;;27.20;20.00;;;;;;4950665;28;20987;-67